Time;durP1;ratioP1;P1;durP2;ratioP2;P2;SDS_P1;SDS_P2;PMS_P1;PMS_P2;Temp;Humidity;BMP_temperature;BMP_pressure;BME280_temperature;BME280_humidity;BME280_pressure;Samples;Min_cycle;Max_cycle;Signal;HPM_P1;HPM_P2
2022/07/06 00:01:21;;;;;;;;;;;;;;;15.71;60.65;100620.84;4958176;28;1157;-58
2022/07/06 00:03:47;;;;;;;;;;;;;;;18.94;53.49;100622.44;4957874;28;940;-59
2022/07/06 00:06:12;;;;;;;;;;;;;;;16.15;59.91;100618.72;4957810;28;964;-58
2022/07/06 00:08:38;;;;;;;;;;;;;;;16.57;55.77;100623.06;4958269;28;1038;-58
2022/07/06 00:11:03;;;;;;;;;;;;;;;17.20;52.04;100610.81;4958094;29;1046;-59
2022/07/06 00:13:29;;;;;;;;;;;;;;;17.28;50.27;100621.22;4957754;28;1906;-59
2022/07/06 00:15:54;;;;;;;;;;;;;;;17.23;49.58;100618.50;4958014;28;1124;-59
2022/07/06 00:18:20;;;;;;;;;;;;;;;17.22;48.65;100611.34;4959806;28;920;-58
2022/07/06 00:20:45;;;;;;;;;;;;;;;17.61;51.16;100613.34;4959474;28;1019;-59
2022/07/06 00:23:10;;;;;;;;;;;;;;;15.47;58.78;100622.44;4959187;28;2509;-58
2022/07/06 00:25:36;;;;;;;;;;;;;;;18.60;53.78;100628.00;4958044;28;971;-59
2022/07/06 00:28:01;;;;;;;;;;;;;;;15.68;59.59;100624.13;4957726;28;1019;-59
2022/07/06 00:30:27;;;;;;;;;;;;;;;17.16;57.65;100623.47;4957324;28;1137;-59
2022/07/06 00:32:53;;;;;;;;;;;;;;;18.42;54.36;100622.09;4957843;28;1898;-59
2022/07/06 00:35:18;;;;;;;;;;;;;;;14.70;62.53;100634.69;4957290;28;995;-59
2022/07/06 00:37:44;;;;;;;;;;;;;;;18.35;56.04;100621.63;4956019;29;2002;-60
2022/07/06 00:40:09;;;;;;;;;;;;;;;16.33;59.54;100614.59;4957770;28;975;-60
2022/07/06 00:42:44;;;;;;;;;;;;;;;16.75;59.87;100608.75;4957762;28;948;-60
2022/07/06 00:45:10;;;;;;;;;;;;;;;18.61;55.18;100607.63;4957614;28;1190;-60
2022/07/06 00:47:35;;;;;;;;;;;;;;;14.78;62.43;100605.16;4958216;28;1085;-60
2022/07/06 00:50:13;;;;;;;;;;;;;;;18.10;57.82;100598.72;4957689;28;1202;-59
2022/07/06 00:52:39;;;;;;;;;;;;;;;16.24;60.05;100603.34;4951588;28;911;-60
2022/07/06 00:55:05;;;;;;;;;;;;;;;16.54;60.95;100602.47;4954201;28;2927;-60
2022/07/06 00:57:30;;;;;;;;;;;;;;;18.41;56.20;100587.44;4940139;28;1219;-60
2022/07/06 00:59:56;;;;;;;;;;;;;;;14.78;62.32;100597.78;4959136;29;1253;-60
2022/07/06 01:02:22;;;;;;;;;;;;;;;18.22;58.12;100597.53;4965820;28;995;-60
2022/07/06 01:04:48;;;;;;;;;;;;;;;16.98;58.79;100590.03;4960843;28;967;-60
2022/07/06 01:07:13;;;;;;;;;;;;;;;15.73;59.86;100598.63;4961144;29;1023;-60
2022/07/06 01:09:39;;;;;;;;;;;;;;;16.85;53.34;100590.59;4927561;29;1126;-59
2022/07/06 01:12:05;;;;;;;;;;;;;;;18.06;55.23;100589.41;4959881;29;1237;-59
2022/07/06 01:14:30;;;;;;;;;;;;;;;17.56;53.81;100588.66;4943630;28;1964;-59
2022/07/06 01:16:56;;;;;;;;;;;;;;;17.43;52.14;100596.41;4959119;29;1121;-59
2022/07/06 01:19:21;;;;;;;;;;;;;;;17.35;50.93;100582.44;4960817;28;1082;-59
2022/07/06 01:21:46;;;;;;;;;;;;;;;17.35;49.67;100576.94;4943930;29;1304;-59
2022/07/06 01:24:12;;;;;;;;;;;;;;;17.33;49.23;100574.47;4961062;28;2724;-58
2022/07/06 01:26:37;;;;;;;;;;;;;;;17.30;48.80;100580.53;4960786;28;1019;-59
2022/07/06 01:29:03;;;;;;;;;;;;;;;17.34;48.18;100581.63;4947671;28;1156;-59
2022/07/06 01:31:28;;;;;;;;;;;;;;;18.02;49.94;100582.84;4960654;28;1006;-59
2022/07/06 01:33:54;;;;;;;;;;;;;;;15.13;57.27;100584.53;4964291;28;1969;-59
2022/07/06 01:36:20;;;;;;;;;;;;;;;17.64;55.17;100589.97;4960793;28;1002;-59
2022/07/06 01:38:46;;;;;;;;;;;;;;;18.59;53.56;100572.13;4947109;28;1161;-60
2022/07/06 01:41:12;;;;;;;;;;;;;;;15.17;62.74;100585.63;4943022;29;1341;-59
2022/07/06 01:43:38;;;;;;;;;;;;;;;18.68;55.55;100580.53;4943557;28;1184;-60
2022/07/06 01:46:03;;;;;;;;;;;;;;;16.14;60.32;100581.41;4960659;28;963;-59
2022/07/06 01:48:30;;;;;;;;;;;;;;;16.36;56.79;100573.69;4949106;29;1224;-59
2022/07/06 01:50:56;;;;;;;;;;;;;;;17.04;52.41;100577.94;4939979;29;1005;-59
2022/07/06 01:53:21;;;;;;;;;;;;;;;17.13;50.79;100571.84;4947315;29;2039;-59
2022/07/06 01:55:47;;;;;;;;;;;;;;;17.22;49.78;100572.88;4964474;28;1162;-59
2022/07/06 01:58:13;;;;;;;;;;;;;;;17.10;49.14;100575.97;4948453;28;1312;-59
2022/07/06 02:00:38;;;;;;;;;;;;;;;17.23;49.18;100578.09;4948027;29;1392;-59
2022/07/06 02:03:04;;;;;;;;;;;;;;;17.76;51.40;100577.50;4959962;28;1081;-59
2022/07/06 02:05:29;;;;;;;;;;;;;;;17.42;50.47;100577.47;4960091;28;963;-60
2022/07/06 02:07:55;;;;;;;;;;;;;;;17.40;49.19;100579.66;4942749;29;1361;-60
2022/07/06 02:10:20;;;;;;;;;;;;;;;17.34;48.44;100569.81;4942067;29;1141;-60
2022/07/06 02:12:46;;;;;;;;;;;;;;;17.28;48.07;100571.78;4960433;29;1063;-59
2022/07/06 02:15:12;;;;;;;;;;;;;;;17.82;49.90;100570.03;4959780;28;1910;-59
2022/07/06 02:17:38;;;;;;;;;;;;;;;17.54;49.38;100566.09;4942553;29;1108;-59
2022/07/06 02:20:04;;;;;;;;;;;;;;;17.38;48.74;100573.63;4959106;28;1124;-59
2022/07/06 02:22:30;;;;;;;;;;;;;;;17.36;48.06;100573.94;4960563;28;1152;-60
2022/07/06 02:24:55;;;;;;;;;;;;;;;17.43;48.02;100577.19;4958407;28;2534;-59
2022/07/06 02:27:21;;;;;;;;;;;;;;;16.86;52.67;100570.28;4960927;28;1419;-59
2022/07/06 02:29:47;;;;;;;;;;;;;;;16.45;55.66;100575.88;4942086;29;1105;-61
2022/07/06 02:32:12;;;;;;;;;;;;;;;18.95;52.02;100573.66;4944015;29;1462;-60
2022/07/06 02:34:38;;;;;;;;;;;;;;;15.28;60.43;100567.28;4944574;29;1965;-61
2022/07/06 02:37:04;;;;;;;;;;;;;;;17.28;56.03;100566.28;4959313;28;1232;-60
2022/07/06 02:39:30;;;;;;;;;;;;;;;17.87;55.33;100563.69;4942735;29;1232;-60
2022/07/06 02:41:56;;;;;;;;;;;;;;;15.68;60.35;100566.56;4944748;28;1431;-59
2022/07/06 02:44:21;;;;;;;;;;;;;;;18.76;54.62;100573.56;4959325;29;1074;-61
2022/07/06 02:46:47;;;;;;;;;;;;;;;15.77;60.97;100571.50;4947251;29;1113;-61
2022/07/06 02:49:13;;;;;;;;;;;;;;;17.29;58.45;100562.41;4963995;28;1193;-61
2022/07/06 02:51:38;;;;;;;;;;;;;;;19.01;54.28;100560.63;4958157;29;1217;-61
2022/07/06 02:54:04;;;;;;;;;;;;;;;15.33;62.60;100557.19;4946775;28;2561;-60
2022/07/06 02:56:30;;;;;;;;;;;;;;;17.02;53.92;100557.34;4941188;29;1217;-61
2022/07/06 02:58:56;;;;;;;;;;;;;;;17.12;51.61;100559.22;4941819;29;1101;-61
2022/07/06 03:01:21;;;;;;;;;;;;;;;17.21;50.26;100560.28;4958959;29;1157;-61
2022/07/06 03:03:46;;;;;;;;;;;;;;;17.39;50.71;100556.84;4958636;29;1142;-61
2022/07/06 03:06:12;;;;;;;;;;;;;;;17.70;52.18;100551.16;4944549;28;1156;-61
2022/07/06 03:08:38;;;;;;;;;;;;;;;17.51;50.82;100548.25;4958960;29;1023;-61
2022/07/06 03:11:04;;;;;;;;;;;;;;;17.40;49.80;100554.91;4943051;29;1337;-61
2022/07/06 03:13:29;;;;;;;;;;;;;;;17.41;48.78;100549.13;4958785;28;1906;-62
2022/07/06 03:15:55;;;;;;;;;;;;;;;17.34;48.50;100550.56;4941587;29;1200;-60
2022/07/06 03:18:21;;;;;;;;;;;;;;;17.67;49.40;100548.97;4940988;29;1120;-59
2022/07/06 03:20:47;;;;;;;;;;;;;;;15.70;55.23;100550.66;4941325;28;1495;-59
2022/07/06 03:23:15;;;;;;;;;;;;;;;17.19;55.31;100551.47;4947647;28;2568;-61
2022/07/06 03:25:40;;;;;;;;;;;;;;;18.71;53.29;100546.91;4960379;28;994;-59
2022/07/06 03:28:06;;;;;;;;;;;;;;;14.74;61.87;100554.78;4958534;29;1023;-59
2022/07/06 03:30:31;;;;;;;;;;;;;;;18.42;55.45;100555.22;4955742;29;920;-58
2022/07/06 03:32:57;;;;;;;;;;;;;;;16.73;58.35;100544.22;4942738;29;1902;-58
2022/07/06 03:35:25;;;;;;;;;;;;;;;16.52;59.58;100548.97;4942860;29;1161;-57
2022/07/06 03:37:52;;;;;;;;;;;;;;;18.92;54.60;100546.69;4941111;29;1203;-59
2022/07/06 03:40:19;;;;;;;;;;;;;;;15.02;62.17;100562.56;4947418;28;1211;-59
2022/07/06 03:42:46;;;;;;;;;;;;;;;16.74;54.78;100559.59;4941029;29;1086;-58
2022/07/06 03:45:13;;;;;;;;;;;;;;;17.05;51.67;100551.28;4941148;29;1213;-58
2022/07/06 03:47:40;;;;;;;;;;;;;;;17.07;50.73;100555.38;4941520;29;1344;-59
2022/07/06 03:50:05;;;;;;;;;;;;;;;17.13;49.84;100555.38;4940841;29;1309;-59
2022/07/06 03:52:32;;;;;;;;;;;;;;;17.43;50.60;100557.94;4943642;29;1342;-59
2022/07/06 03:54:58;;;;;;;;;;;;;;;17.65;51.18;100566.88;4941678;29;2684;-60
2022/07/06 03:57:27;;;;;;;;;;;;;;;17.38;50.64;100565.41;4945048;29;1238;-58
2022/07/06 03:59:54;;;;;;;;;;;;;;;17.31;49.52;100568.44;4947333;29;1237;-59
2022/07/06 04:02:22;;;;;;;;;;;;;;;17.25;48.67;100572.31;4941088;29;1129;-59
2022/07/06 04:04:49;;;;;;;;;;;;;;;17.72;49.81;100568.16;4941001;29;1150;-61
2022/07/06 04:07:16;;;;;;;;;;;;;;;15.43;56.74;100561.88;4957943;28;1053;-58
2022/07/06 04:09:42;;;;;;;;;;;;;;;17.22;54.99;100570.13;4940618;29;1330;-59
2022/07/06 04:12:08;;;;;;;;;;;;;;;18.71;53.07;100557.91;4957985;28;982;-58
2022/07/06 04:14:34;;;;;;;;;;;;;;;14.84;62.23;100557.56;4957419;28;2049;-58
2022/07/06 04:17:51;;;;;;;;;;;;;;;18.40;55.48;100560.19;4943638;29;1199;-59
2022/07/06 04:19:46;;;;;;;;;;;;;;;15.84;60.63;100550.16;4939868;28;1425;-58
2022/07/06 04:22:12;;;;;;;;;;;;;;;17.44;58.62;100545.81;4956125;29;1120;-58
2022/07/06 04:24:38;;;;;;;;;;;;;;;19.01;54.41;100553.16;4956789;29;2267;-58
2022/07/06 04:27:03;;;;;;;;;;;;;;;15.12;63.40;100555.47;4957654;28;1253;-58
2022/07/06 04:29:29;;;;;;;;;;;;;;;18.47;56.68;100546.91;4942092;29;1308;-58
2022/07/06 04:31:55;;;;;;;;;;;;;;;16.49;60.61;100564.06;4946826;29;1271;-58
2022/07/06 04:34:20;;;;;;;;;;;;;;;16.35;58.23;100563.00;4942955;29;1981;-58
2022/07/06 04:36:46;;;;;;;;;;;;;;;17.14;53.16;100554.25;4961368;28;967;-58
2022/07/06 04:39:12;;;;;;;;;;;;;;;17.21;51.56;100555.59;4965649;28;1003;-58
2022/07/06 04:41:37;;;;;;;;;;;;;;;17.27;50.22;100548.94;4948893;29;1133;-58
2022/07/06 04:44:03;;;;;;;;;;;;;;;17.26;49.94;100557.47;4950018;29;1173;-58
2022/07/06 04:46:29;;;;;;;;;;;;;;;17.22;49.14;100556.41;4947351;29;1331;-58
2022/07/06 04:48:56;;;;;;;;;;;;;;;17.21;48.85;100560.28;4946864;29;1302;-58
2022/07/06 04:51:26;;;;;;;;;;;;;;;17.18;48.58;100560.81;4945573;29;1962;-58
2022/07/06 04:53:52;;;;;;;;;;;;;;;17.25;48.35;100566.81;4944786;28;2400;-58
2022/07/06 04:56:19;;;;;;;;;;;;;;;17.12;48.26;100556.47;4944603;29;1244;-58
2022/07/06 04:58:44;;;;;;;;;;;;;;;17.16;47.99;100563.03;4943954;29;1292;-58
2022/07/06 05:01:13;;;;;;;;;;;;;;;17.14;47.79;100559.72;4945451;28;1202;-58
2022/07/06 05:03:40;;;;;;;;;;;;;;;17.12;47.64;100559.22;4944830;29;1177;-58
2022/07/06 05:06:07;;;;;;;;;;;;;;;17.18;47.40;100567.16;4944376;28;1227;-58
2022/07/06 05:08:33;;;;;;;;;;;;;;;17.19;47.30;100559.72;4949552;28;1116;-58
2022/07/06 05:10:58;;;;;;;;;;;;;;;17.69;48.44;100557.75;4949191;29;1140;-58
2022/07/06 05:13:24;;;;;;;;;;;;;;;17.65;49.46;100555.88;4960401;28;1907;-58
2022/07/06 05:15:50;;;;;;;;;;;;;;;17.48;48.74;100564.50;4958991;29;1232;-58
2022/07/06 05:18:15;;;;;;;;;;;;;;;17.37;48.31;100564.56;4943113;29;1089;-58
2022/07/06 05:20:42;;;;;;;;;;;;;;;17.32;47.94;100558.25;4959438;28;1160;-59
2022/07/06 05:23:08;;;;;;;;;;;;;;;17.29;47.59;100562.41;4959025;29;1966;-60
2022/07/06 05:25:34;;;;;;;;;;;;;;;17.27;47.31;100567.38;4959172;29;1247;-59
2022/07/06 05:28:00;;;;;;;;;;;;;;;17.27;47.19;100562.69;4946618;28;1039;-59
2022/07/06 05:30:26;;;;;;;;;;;;;;;17.21;47.26;100560.28;4960585;29;1062;-58
2022/07/06 05:32:51;;;;;;;;;;;;;;;17.17;46.90;100557.25;4958625;29;1369;-58
2022/07/06 05:35:17;;;;;;;;;;;;;;;17.15;46.89;100561.38;4943055;29;1899;-59
2022/07/06 05:37:43;;;;;;;;;;;;;;;17.20;46.63;100569.63;4961366;28;1046;-59
2022/07/06 05:40:09;;;;;;;;;;;;;;;17.56;47.33;100564.72;4960691;28;1166;-59
2022/07/06 05:42:35;;;;;;;;;;;;;;;16.05;52.81;100568.25;4960323;29;1034;-58
2022/07/06 05:45:00;;;;;;;;;;;;;;;16.99;53.79;100558.72;4949748;28;1197;-59
2022/07/06 05:50:11;;;;;;;;;;;;;;;14.96;60.16;100568.31;4958330;28;1211;-58
2022/07/06 05:52:42;;;;;;;;;;;;;;;18.56;53.25;100564.41;4942780;29;1274;-58
2022/07/06 05:55:10;;;;;;;;;;;;;;;18.74;52.72;100562.03;4944908;28;2639;-60
2022/07/06 05:57:35;;;;;;;;;;;;;;;16.25;60.86;100556.41;4958629;29;1116;-58
2022/07/06 06:00:02;;;;;;;;;;;;;;;17.44;56.50;100554.06;4958997;29;1191;-60
2022/07/06 06:02:41;;;;;;;;;;;;;;;17.62;55.74;100554.50;4942658;29;1361;-59
2022/07/06 06:05:09;;;;;;;;;;;;;;;17.62;55.59;100554.50;4954032;28;991;-57
2022/07/06 06:07:35;;;;;;;;;;;;;;;17.57;55.56;100547.13;4951221;29;1288;-60
2022/07/06 06:10:02;;;;;;;;;;;;;;;17.57;55.32;100549.88;4949501;29;1290;-61
2022/07/06 06:12:28;;;;;;;;;;;;;;;17.54;55.49;100546.88;4936294;29;1043;-60
2022/07/06 06:14:53;;;;;;;;;;;;;;;17.52;55.31;100549.09;4959554;28;1980;-60
2022/07/06 06:17:18;;;;;;;;;;;;;;;17.53;55.32;100545.22;4942495;29;1019;-60
2022/07/06 06:19:44;;;;;;;;;;;;;;;17.45;55.59;100544.72;4960358;28;1058;-59
2022/07/06 06:22:09;;;;;;;;;;;;;;;17.38;55.82;100538.72;4960589;28;983;-58
2022/07/06 06:24:35;;;;;;;;;;;;;;;17.41;55.39;100534.59;4958307;29;2751;-56
2022/07/06 06:27:00;;;;;;;;;;;;;;;17.43;55.30;100535.94;4959583;28;1168;-57
2022/07/06 06:29:26;;;;;;;;;;;;;;;17.40;55.46;100536.53;4959332;28;967;-58
2022/07/06 06:31:51;;;;;;;;;;;;;;;17.38;55.42;100537.91;4958711;29;1058;-56
2022/07/06 06:34:16;;;;;;;;;;;;;;;17.38;55.37;100533.22;4959204;28;1980;-58
2022/07/06 06:36:42;;;;;;;;;;;;;;;17.34;55.70;100548.63;4963349;28;1090;-59
2022/07/06 06:39:07;;;;;;;;;;;;;;;17.33;55.62;100537.94;4958173;28;971;-58
2022/07/06 06:41:33;;;;;;;;;;;;;;;17.37;55.38;100537.06;4961979;28;999;-59
2022/07/06 06:43:58;;;;;;;;;;;;;;;17.38;55.56;100535.97;4957498;29;1110;-58
2022/07/06 06:46:28;;;;;;;;;;;;;;;17.35;55.56;100532.97;4961614;28;1154;-56
2022/07/06 06:48:53;;;;;;;;;;;;;;;17.35;55.35;100533.78;4958347;29;1180;-58
2022/07/06 06:51:20;;;;;;;;;;;;;;;17.34;55.44;100526.66;4959963;28;1224;-58
2022/07/06 06:53:46;;;;;;;;;;;;;;;17.28;55.76;100534.09;4958616;28;2492;-58
2022/07/06 06:56:11;;;;;;;;;;;;;;;17.25;55.75;100534.69;4959596;28;1189;-60
2022/07/06 06:58:37;;;;;;;;;;;;;;;17.26;55.71;100535.50;4958509;28;999;-57
2022/07/06 07:01:02;;;;;;;;;;;;;;;17.23;55.66;100534.13;4958755;28;1260;-57
2022/07/06 07:03:27;;;;;;;;;;;;;;;17.22;55.66;100528.91;4957867;28;1017;-57
2022/07/06 07:05:53;;;;;;;;;;;;;;;17.21;55.91;100522.63;4957789;29;1112;-57
2022/07/06 07:08:18;;;;;;;;;;;;;;;17.16;56.03;100524.56;4963098;28;1220;-58
2022/07/06 07:10:44;;;;;;;;;;;;;;;17.12;55.91;100529.00;4958710;29;1030;-58
2022/07/06 07:13:09;;;;;;;;;;;;;;;17.13;56.15;100531.44;4961018;28;1902;-58
2022/07/06 07:15:34;;;;;;;;;;;;;;;17.10;56.14;100521.84;4958542;28;971;-57
2022/07/06 07:18:00;;;;;;;;;;;;;;;17.14;55.87;100524.84;4958268;29;1126;-59
2022/07/06 07:20:26;;;;;;;;;;;;;;;17.14;56.09;100527.59;4959112;28;873;-56
2022/07/06 07:22:51;;;;;;;;;;;;;;;17.15;56.22;100528.41;4958010;28;2578;-57
2022/07/06 07:25:17;;;;;;;;;;;;;;;17.15;56.23;100534.72;4962470;28;1225;-60
2022/07/06 07:27:42;;;;;;;;;;;;;;;17.16;56.02;100530.06;4963233;28;1023;-57
2022/07/06 07:30:08;;;;;;;;;;;;;;;17.11;56.26;100528.19;4958106;29;1101;-58
2022/07/06 07:32:33;;;;;;;;;;;;;;;17.10;56.22;100537.50;4940445;29;1062;-57
2022/07/06 07:34:59;;;;;;;;;;;;;;;17.13;56.15;100536.13;4958229;28;1983;-57
2022/07/06 07:37:24;;;;;;;;;;;;;;;17.12;56.33;100534.47;4957472;28;1499;-57
2022/07/06 07:39:50;;;;;;;;;;;;;;;17.06;56.38;100537.25;4960849;28;1089;-57
2022/07/06 07:42:15;;;;;;;;;;;;;;;17.10;56.32;100534.78;4958747;28;1058;-60
2022/07/06 07:44:41;;;;;;;;;;;;;;;17.09;56.45;100531.19;4958054;29;1153;-56
2022/07/06 07:47:06;;;;;;;;;;;;;;;17.10;56.36;100534.78;4958659;28;1010;-60
2022/07/06 07:49:32;;;;;;;;;;;;;;;17.04;56.31;100539.47;4958017;28;1190;-60
2022/07/06 07:51:57;;;;;;;;;;;;;;;17.04;56.37;100531.22;4958222;29;1054;-56
2022/07/06 07:54:23;;;;;;;;;;;;;;;17.08;56.43;100532.31;4940686;28;2366;-56
2022/07/06 07:56:48;;;;;;;;;;;;;;;17.02;56.71;100541.66;4957611;29;912;-56
2022/07/06 07:59:14;;;;;;;;;;;;;;;17.00;56.64;100537.56;4958361;28;979;-59
2022/07/06 08:01:40;;;;;;;;;;;;;;;17.03;56.34;100542.50;4946012;28;1112;-60
2022/07/06 08:04:06;;;;;;;;;;;;;;;17.01;56.74;100539.19;4958214;28;1027;-59
2022/07/06 08:06:32;;;;;;;;;;;;;;;17.04;56.36;100549.63;4957993;28;1067;-58
2022/07/06 08:08:57;;;;;;;;;;;;;;;17.04;56.31;100535.88;4959829;28;1023;-58
2022/07/06 08:11:23;;;;;;;;;;;;;;;17.00;56.73;100543.03;4944397;28;1118;-58
2022/07/06 08:13:48;;;;;;;;;;;;;;;16.99;56.44;100538.69;4961944;28;1906;-59
2022/07/06 08:16:13;;;;;;;;;;;;;;;16.97;56.74;100549.09;4961706;28;983;-56
2022/07/06 08:18:39;;;;;;;;;;;;;;;16.95;56.82;100546.66;4965256;28;1132;-57
2022/07/06 08:21:05;;;;;;;;;;;;;;;16.99;56.82;100542.22;4964525;28;916;-57
2022/07/06 08:23:30;;;;;;;;;;;;;;;17.01;56.85;100545.53;4961211;28;2591;-57
2022/07/06 08:25:56;;;;;;;;;;;;;;;16.99;56.63;100549.66;4962383;28;1137;-58
2022/07/06 08:28:21;;;;;;;;;;;;;;;17.02;56.55;100552.66;4968215;28;1018;-58
2022/07/06 08:30:47;;;;;;;;;;;;;;;16.96;56.74;100556.53;4964511;28;963;-57
2022/07/06 08:33:13;;;;;;;;;;;;;;;16.95;56.54;100541.16;4962912;28;1914;-58
2022/07/06 08:35:38;;;;;;;;;;;;;;;16.98;56.50;100548.81;4966012;28;1073;-58
2022/07/06 08:38:04;;;;;;;;;;;;;;;16.97;56.57;100547.19;4967941;28;1134;-58
2022/07/06 08:40:31;;;;;;;;;;;;;;;16.96;56.64;100542.81;4961476;29;995;-58
2022/07/06 08:42:56;;;;;;;;;;;;;;;16.96;56.80;100542.81;4961193;28;1011;-58
2022/07/06 08:45:22;;;;;;;;;;;;;;;16.92;56.76;100544.47;4943269;29;1177;-58
2022/07/06 08:47:48;;;;;;;;;;;;;;;16.98;56.52;100546.06;4945228;29;1008;-58
2022/07/06 08:50:14;;;;;;;;;;;;;;;16.96;56.65;100537.31;4960964;28;1166;-58
2022/07/06 08:52:40;;;;;;;;;;;;;;;16.92;56.71;100539.78;4944056;29;1027;-58
2022/07/06 08:55:05;;;;;;;;;;;;;;;16.91;56.93;100540.06;4966755;28;2669;-58
2022/07/06 08:57:31;;;;;;;;;;;;;;;16.96;56.70;100531.81;4960114;28;1054;-58
2022/07/06 08:59:56;;;;;;;;;;;;;;;16.92;56.88;100536.22;4965978;28;1066;-58
2022/07/06 09:02:25;;;;;;;;;;;;;;;16.93;56.73;100537.88;4943889;29;1074;-58
2022/07/06 09:04:51;;;;;;;;;;;;;;;16.88;56.98;100524.97;4964346;28;1134;-58
2022/07/06 09:07:16;;;;;;;;;;;;;;;16.97;56.53;100533.47;4961113;28;1082;-58
2022/07/06 09:09:45;;;;;;;;;;;;;;;16.96;56.54;100526.31;4943562;28;1146;-57
2022/07/06 09:12:13;;;;;;;;;;;;;;;16.95;56.67;100524.66;4960630;29;1129;-56
2022/07/06 09:14:38;;;;;;;;;;;;;;;16.92;56.77;100530.72;4960607;28;1902;-56
2022/07/06 09:17:05;;;;;;;;;;;;;;;16.92;56.92;100531.53;4960425;28;959;-57
2022/07/06 09:19:31;;;;;;;;;;;;;;;16.90;56.86;100516.44;4960074;28;999;-56
2022/07/06 09:21:56;;;;;;;;;;;;;;;16.90;56.87;100521.94;4960130;28;1145;-58
2022/07/06 09:24:22;;;;;;;;;;;;;;;16.90;56.87;100521.94;4959679;29;2560;-58
2022/07/06 09:26:47;;;;;;;;;;;;;;;16.93;56.86;100519.47;4960238;28;1125;-57
2022/07/06 09:29:13;;;;;;;;;;;;;;;16.92;57.06;100517.00;4960548;28;1027;-58
2022/07/06 09:31:39;;;;;;;;;;;;;;;16.93;56.83;100522.22;4961494;28;1066;-56
2022/07/06 09:34:10;;;;;;;;;;;;;;;17.01;56.75;100517.22;4960801;28;1971;-57
2022/07/06 09:36:38;;;;;;;;;;;;;;;17.03;56.52;100521.34;4961474;28;1034;-59
2022/07/06 09:39:16;;;;;;;;;;;;;;;16.99;56.80;100513.94;4960310;28;1053;-60
2022/07/06 09:41:41;;;;;;;;;;;;;;;16.97;57.07;100511.50;4966464;28;951;-57
2022/07/06 09:44:07;;;;;;;;;;;;;;;16.98;56.98;100513.13;4959879;28;1141;-57
2022/07/06 09:46:42;;;;;;;;;;;;;;;16.96;57.24;100512.59;4942278;29;1393;-58
2022/07/06 09:49:08;;;;;;;;;;;;;;;16.94;57.04;100509.28;4958780;28;1229;-58
2022/07/06 09:51:37;;;;;;;;;;;;;;;16.96;57.15;100509.84;4959016;28;991;-58
2022/07/06 09:54:08;;;;;;;;;;;;;;;16.95;57.08;100502.69;4956764;28;2358;-58
2022/07/06 09:56:37;;;;;;;;;;;;;;;16.93;57.22;100500.25;4954529;28;1030;-62
2022/07/06 09:59:09;;;;;;;;;;;;;;;16.89;57.45;100503.84;4958997;28;1086;-61
2022/07/06 10:01:36;;;;;;;;;;;;;;;16.87;57.67;100506.00;4962609;28;1220;-61
2022/07/06 10:04:01;;;;;;;;;;;;;;;17.13;56.89;100500.41;4958910;29;1015;-60
2022/07/06 10:06:27;;;;;;;;;;;;;;;17.13;56.96;100497.66;4958786;28;1153;-57
2022/07/06 10:08:53;;;;;;;;;;;;;;;17.10;57.06;100499.06;4958338;28;1038;-56
2022/07/06 10:11:19;;;;;;;;;;;;;;;17.06;57.13;100496.03;4940957;29;1111;-57
2022/07/06 10:13:44;;;;;;;;;;;;;;;17.08;57.14;100496.59;4941711;29;1989;-58
2022/07/06 10:16:10;;;;;;;;;;;;;;;17.07;57.01;100500.44;4941335;29;1018;-59
2022/07/06 10:18:35;;;;;;;;;;;;;;;17.08;56.87;100496.59;4946387;28;1150;-57
2022/07/06 10:21:01;;;;;;;;;;;;;;;17.08;57.13;100495.75;4941003;29;1117;-59
2022/07/06 10:23:26;;;;;;;;;;;;;;;17.06;57.22;100493.28;4957064;28;2493;-59
2022/07/06 10:25:51;;;;;;;;;;;;;;;17.09;57.13;100498.22;4960399;28;1147;-58
2022/07/06 10:28:17;;;;;;;;;;;;;;;17.07;56.90;100494.94;4958123;28;1078;-58
2022/07/06 10:30:42;;;;;;;;;;;;;;;17.09;56.82;100492.72;4956810;28;1559;-56
2022/07/06 10:33:08;;;;;;;;;;;;;;;17.08;57.18;100493.84;4957609;29;1058;-57
2022/07/06 10:35:33;;;;;;;;;;;;;;;17.07;56.98;100486.69;4940317;29;1991;-55
2022/07/06 10:38:03;;;;;;;;;;;;;;;17.09;56.77;100492.72;4958154;29;983;-56
2022/07/06 10:43:16;;;;;;;;;;;;;;;17.09;56.74;100495.47;4958309;28;1019;-56
2022/07/06 10:45:44;;;;;;;;;;;;;;;17.08;57.11;100493.00;4955255;28;1225;-56
2022/07/06 10:48:10;;;;;;;;;;;;;;;17.09;56.90;100487.22;4967774;28;1300;-56
2022/07/06 10:50:35;;;;;;;;;;;;;;;17.10;56.70;100486.13;4931945;28;1215267;-57
2022/07/06 10:53:01;;;;;;;;;;;;;;;17.12;56.71;100487.78;4973379;28;2442;-57
2022/07/06 10:55:33;;;;;;;;;;;;;;;17.08;56.92;100485.59;4972266;28;1910;-56
2022/07/06 10:57:58;;;;;;;;;;;;;;;17.10;56.85;100483.38;4958276;28;1023;-55
2022/07/06 11:00:24;;;;;;;;;;;;;;;17.13;56.60;100482.00;4964450;28;1235;-55
2022/07/06 11:02:50;;;;;;;;;;;;;;;17.13;56.77;100478.44;4959038;29;1093;-56
2022/07/06 11:05:34;;;;;;;;;;;;;;;17.09;56.83;100476.25;4954312;28;1169;-58
2022/07/06 11:08:03;;;;;;;;;;;;;;;17.06;57.08;100479.56;4955729;28;1133;-59
2022/07/06 11:10:28;;;;;;;;;;;;;;;17.10;56.91;100477.06;4957554;28;1204;-57
2022/07/06 11:13:00;;;;;;;;;;;;;;;17.13;56.72;100464.69;4947393;28;1410;-55
2022/07/06 11:15:44;;;;;;;;;;;;;;;17.08;56.87;100458.13;4960086;28;1910;-55
2022/07/06 11:18:11;;;;;;;;;;;;;;;17.13;56.69;100464.69;4960025;28;1118;-48
2022/07/06 11:20:36;;;;;;;;;;;;;;;17.09;56.89;100462.50;4960152;28;1132;-55
2022/07/06 11:23:02;;;;;;;;;;;;;;;17.13;56.74;100465.50;4958865;28;1997;-54
2022/07/06 11:25:27;;;;;;;;;;;;;;;17.07;57.05;100461.97;4959677;28;1110;-55
2022/07/06 11:27:53;;;;;;;;;;;;;;;17.09;56.86;100469.94;4958743;28;1164;-55
2022/07/06 11:30:18;;;;;;;;;;;;;;;17.06;56.92;100462.25;4958125;28;1244;-53
2022/07/06 11:32:43;;;;;;;;;;;;;;;17.12;56.71;100457.56;4941548;29;884;-55
2022/07/06 11:35:09;;;;;;;;;;;;;;;17.12;56.79;100455.63;4961802;28;1902;-55
2022/07/06 11:37:34;;;;;;;;;;;;;;;17.09;56.98;100454.25;4971901;28;1208;-53
2022/07/06 11:40:05;;;;;;;;;;;;;;;17.10;56.82;100455.91;4974906;28;1301;-53
2022/07/06 11:42:30;;;;;;;;;;;;;;;17.08;56.86;100452.63;4972858;28;1311;-55
2022/07/06 11:44:56;;;;;;;;;;;;;;;17.12;56.70;100452.06;4967429;28;1219;-53
2022/07/06 11:47:25;;;;;;;;;;;;;;;17.15;56.61;100446.00;4962761;28;897;-56
2022/07/06 11:49:50;;;;;;;;;;;;;;;17.08;56.86;100441.66;4940714;29;1465;-56
2022/07/06 11:52:16;;;;;;;;;;;;;;;17.10;57.02;100438.63;4962298;28;1174;-55
2022/07/06 11:54:41;;;;;;;;;;;;;;;17.11;56.68;100448.50;4957200;28;2614;-55
2022/07/06 11:57:07;;;;;;;;;;;;;;;17.07;56.87;100440.00;4964394;28;1065;-55
2022/07/06 11:59:33;;;;;;;;;;;;;;;17.10;56.96;100439.44;4963475;28;1239;-55
2022/07/06 12:02:03;;;;;;;;;;;;;;;17.11;56.76;100440.25;4957854;28;1014;-54
2022/07/06 12:04:29;;;;;;;;;;;;;;;17.09;56.72;100431.47;4958117;28;1161;-54
2022/07/06 12:06:54;;;;;;;;;;;;;;;17.09;57.01;100436.97;4958046;29;1067;-55
2022/07/06 12:09:20;;;;;;;;;;;;;;;17.10;56.75;100428.44;4958184;28;1145;-56
2022/07/06 12:11:49;;;;;;;;;;;;;;;17.16;56.73;100431.16;4939804;29;924;-51
2022/07/06 12:14:16;;;;;;;;;;;;;;;17.15;56.85;100430.31;4957491;29;1913;-58
2022/07/06 12:16:41;;;;;;;;;;;;;;;17.14;56.62;100433.34;4957580;28;1204;-58
2022/07/06 12:19:08;;;;;;;;;;;;;;;17.09;57.16;100429.53;4940470;29;1109;-56
2022/07/06 12:21:34;;;;;;;;;;;;;;;17.14;56.71;100425.09;4957569;28;1205;-57
2022/07/06 12:23:59;;;;;;;;;;;;;;;17.13;57.11;100426.25;4954986;28;2455;-55
2022/07/06 12:26:25;;;;;;;;;;;;;;;17.15;56.75;100427.56;4957765;28;1113;-55
2022/07/06 12:29:00;;;;;;;;;;;;;;;17.13;56.89;100423.50;4957411;28;1183;-58
2022/07/06 12:31:35;;;;;;;;;;;;;;;17.14;56.95;100417.72;4958366;28;1165;-57
2022/07/06 12:34:01;;;;;;;;;;;;;;;17.02;57.46;100420.00;4956940;28;1903;-57
2022/07/06 12:36:26;;;;;;;;;;;;;;;17.01;57.70;100408.19;4957637;28;960;-57
2022/07/06 12:38:52;;;;;;;;;;;;;;;17.05;57.78;100408.41;4957574;29;1086;-57
2022/07/06 12:41:30;;;;;;;;;;;;;;;17.13;57.62;100402.31;4957628;28;983;-58
2022/07/06 12:44:22;;;;;;;;;;;;;;;17.07;57.70;100406.22;4957573;28;1126;-58
2022/07/06 12:46:48;;;;;;;;;;;;;;;17.06;57.94;100405.38;4954980;29;1887;-59
2022/07/06 12:49:20;;;;;;;;;;;;;;;17.11;57.96;100410.03;4957352;28;1161;-58